createdAt,value
2022-12-18T00:00:36.197Z,-10.10
2022-12-18T00:03:07.128Z,-10.10
2022-12-18T00:05:36.572Z,-10.10
2022-12-18T00:08:09.362Z,-10.10
2022-12-18T00:10:38.756Z,-10.20
2022-12-18T00:13:10.034Z,-10.20
2022-12-18T00:15:41.657Z,-10.20
2022-12-18T00:18:16.093Z,-10.30
2022-12-18T00:20:47.962Z,-10.40
2022-12-18T00:23:17.060Z,-10.40
2022-12-18T00:25:47.194Z,-10.40
2022-12-18T00:28:16.390Z,-10.40
2022-12-18T00:30:45.243Z,-10.50
2022-12-18T00:33:15.761Z,-10.50
2022-12-18T00:35:44.700Z,-10.50
2022-12-18T00:38:14.364Z,-10.50
2022-12-18T00:40:43.468Z,-10.50
2022-12-18T00:43:11.062Z,-10.50
2022-12-18T00:45:41.007Z,-10.50
2022-12-18T00:48:09.830Z,-10.50
2022-12-18T00:50:41.066Z,-10.50
2022-12-18T00:53:13.312Z,-10.50
2022-12-18T00:55:42.700Z,-10.50
2022-12-18T00:58:14.201Z,-10.50
2022-12-18T01:00:43.660Z,-10.60
2022-12-18T01:03:16.287Z,-10.60
2022-12-18T01:05:48.141Z,-10.50
2022-12-18T01:08:17.332Z,-10.50
2022-12-18T01:10:47.145Z,-10.40
2022-12-18T01:13:16.520Z,-10.40
2022-12-18T01:15:52.399Z,-10.40
2022-12-18T01:18:21.195Z,-10.40
2022-12-18T01:20:51.976Z,-10.30
2022-12-18T01:23:22.402Z,-10.40
2022-12-18T01:25:51.276Z,-10.40
2022-12-18T01:28:20.663Z,-10.50
2022-12-18T01:30:50.941Z,-10.40
2022-12-18T01:33:19.860Z,-10.50
2022-12-18T01:35:52.045Z,-10.50
2022-12-18T01:38:22.585Z,-10.50
2022-12-18T01:40:51.487Z,-10.50
2022-12-18T01:43:21.112Z,-10.50
2022-12-18T01:45:50.004Z,-10.60
2022-12-18T01:48:18.971Z,-10.60
2022-12-18T01:50:52.978Z,-10.60
2022-12-18T01:53:24.986Z,-10.70
2022-12-18T01:55:57.117Z,-10.80
2022-12-18T01:58:33.344Z,-10.80
2022-12-18T02:01:02.420Z,-10.90
2022-12-18T02:03:31.198Z,-10.90
2022-12-18T02:06:06.503Z,-10.90
2022-12-18T02:08:48.014Z,-11.00
2022-12-18T02:11:22.866Z,-11.10
2022-12-18T02:14:01.046Z,-11.10
2022-12-18T02:16:40.949Z,-11.10
2022-12-18T02:20:00.159Z,-11.10
2022-12-18T02:22:38.327Z,-11.10
2022-12-18T02:25:22.519Z,-11.10
2022-12-18T02:27:54.801Z,-11.20
2022-12-18T02:30:24.254Z,-11.20
2022-12-18T02:32:55.993Z,-11.20
2022-12-18T02:35:30.332Z,-11.20
2022-12-18T02:38:02.626Z,-11.20
2022-12-18T02:40:33.948Z,-11.30
2022-12-18T02:43:10.549Z,-11.30
2022-12-18T02:45:50.589Z,-11.30
2022-12-18T02:48:22.566Z,-11.30
2022-12-18T02:51:01.529Z,-11.40
2022-12-18T02:53:38.774Z,-11.50
2022-12-18T02:56:14.949Z,-11.50
2022-12-18T02:58:53.706Z,-11.50
2022-12-18T03:01:44.344Z,-11.50
2022-12-18T03:04:19.653Z,-11.50
2022-12-18T03:06:52.648Z,-11.40
2022-12-18T03:09:24.946Z,-11.50
2022-12-18T03:12:17.134Z,-11.40
2022-12-18T03:14:52.853Z,-11.40
2022-12-18T03:17:24.908Z,-11.50
2022-12-18T03:19:56.276Z,-11.50
2022-12-18T03:22:28.999Z,-11.40
2022-12-18T03:25:01.867Z,-11.40
2022-12-18T03:27:33.793Z,-11.40
2022-12-18T03:30:14.399Z,-11.40
2022-12-18T03:32:49.218Z,-11.40
2022-12-18T03:35:24.864Z,-11.40
2022-12-18T03:37:56.113Z,-11.40
2022-12-18T03:40:32.726Z,-11.40
2022-12-18T03:43:09.915Z,-11.40
2022-12-18T03:45:44.174Z,-11.40
2022-12-18T03:48:21.440Z,-11.40
2022-12-18T03:50:56.765Z,-11.40
2022-12-18T03:53:37.587Z,-11.50
2022-12-18T03:56:09.515Z,-11.40
2022-12-18T03:58:44.188Z,-11.40
2022-12-18T04:01:30.205Z,-11.50
2022-12-18T04:04:01.562Z,-11.40
2022-12-18T04:06:35.589Z,-11.50
2022-12-18T04:09:05.288Z,-11.50
2022-12-18T04:11:38.554Z,-11.60
2022-12-18T04:14:09.905Z,-11.70
2022-12-18T04:16:42.334Z,-11.70
2022-12-18T04:19:17.318Z,-11.70
2022-12-18T04:21:47.778Z,-11.70
2022-12-18T04:24:18.041Z,-11.70
2022-12-18T04:26:57.555Z,-11.80
2022-12-18T04:29:30.732Z,-11.80
2022-12-18T04:32:02.003Z,-11.80
2022-12-18T04:34:33.976Z,-11.70
2022-12-18T04:37:03.069Z,-11.80
2022-12-18T04:39:32.654Z,-11.80
2022-12-18T04:42:07.703Z,-11.70
2022-12-18T04:44:37.207Z,-11.60
2022-12-18T04:47:09.247Z,-11.70
2022-12-18T04:49:38.186Z,-11.70
2022-12-18T04:52:12.966Z,-11.70
2022-12-18T04:54:42.813Z,-11.70
2022-12-18T04:57:14.661Z,-11.60
2022-12-18T04:59:44.764Z,-11.60
2022-12-18T05:02:17.379Z,-11.60
2022-12-18T05:04:45.942Z,-11.60
2022-12-18T05:07:14.553Z,-11.70
2022-12-18T05:09:43.415Z,-11.80
2022-12-18T05:12:12.424Z,-11.80
2022-12-18T05:14:40.961Z,-11.80
2022-12-18T05:17:09.897Z,-11.80
2022-12-18T05:19:40.695Z,-11.90
2022-12-18T05:22:11.933Z,-11.90
2022-12-18T05:24:41.851Z,-11.80
2022-12-18T05:27:10.768Z,-11.90
2022-12-18T05:29:40.377Z,-11.90
2022-12-18T05:32:10.680Z,-11.90
2022-12-18T05:34:41.514Z,-11.90
2022-12-18T05:37:10.142Z,-11.80
2022-12-18T05:39:39.095Z,-11.80
2022-12-18T05:42:07.667Z,-11.80
2022-12-18T05:44:36.801Z,-11.80
2022-12-18T05:47:07.402Z,-11.80
2022-12-18T05:49:36.629Z,-11.80
2022-12-18T05:52:07.407Z,-11.70
2022-12-18T05:54:36.536Z,-11.70
2022-12-18T05:57:06.140Z,-11.70
2022-12-18T05:59:35.368Z,-11.60
2022-12-18T06:02:04.407Z,-11.60
2022-12-18T06:04:32.984Z,-11.70
2022-12-18T06:07:09.049Z,-11.70
2022-12-18T06:09:39.497Z,-11.70
2022-12-18T06:12:09.772Z,-11.60
2022-12-18T06:14:39.030Z,-11.60
2022-12-18T06:17:09.394Z,-11.60
2022-12-18T06:19:38.568Z,-11.50
2022-12-18T06:22:07.902Z,-11.60
2022-12-18T06:24:36.975Z,-11.50
2022-12-18T06:27:07.708Z,-11.50
2022-12-18T06:29:38.392Z,-11.50
2022-12-18T06:32:07.781Z,-11.50
2022-12-18T06:34:37.430Z,-11.50
2022-12-18T06:37:06.762Z,-11.50
2022-12-18T06:39:35.996Z,-11.50
2022-12-18T06:42:08.248Z,-11.60
2022-12-18T06:44:37.911Z,-11.60
2022-12-18T06:47:07.351Z,-11.50
2022-12-18T06:49:36.174Z,-11.60
2022-12-18T06:52:05.025Z,-11.60
2022-12-18T06:54:33.833Z,-11.60
2022-12-18T06:57:03.102Z,-11.60
2022-12-18T06:59:37.128Z,-11.60
2022-12-18T07:02:06.719Z,-11.60
2022-12-18T07:04:35.809Z,-11.60
2022-12-18T07:07:04.916Z,-11.60
2022-12-18T07:09:33.902Z,-11.60
2022-12-18T07:12:06.770Z,-11.70
2022-12-18T07:14:37.607Z,-11.70
2022-12-18T07:17:07.887Z,-11.80
2022-12-18T07:19:37.335Z,-11.80
2022-12-18T07:22:06.644Z,-11.70
2022-12-18T07:24:36.231Z,-11.70
2022-12-18T07:27:05.548Z,-11.70
2022-12-18T07:29:38.741Z,-11.70
2022-12-18T07:32:09.624Z,-11.70
2022-12-18T07:34:39.430Z,-11.70
2022-12-18T07:37:08.514Z,-11.60
2022-12-18T07:39:38.060Z,-11.60
2022-12-18T07:42:24.748Z,-11.60
2022-12-18T07:44:56.901Z,-11.50
2022-12-18T07:47:25.680Z,-11.50
2022-12-18T07:49:56.083Z,-11.40
2022-12-18T07:52:26.346Z,-11.30
2022-12-18T07:54:56.661Z,-11.20
2022-12-18T08:00:18.512Z,-11.00
2022-12-18T08:02:47.590Z,-10.90
2022-12-18T08:05:17.702Z,-10.90
2022-12-18T08:07:47.067Z,-10.80
2022-12-18T08:10:15.548Z,-10.80
2022-12-18T08:12:44.452Z,-10.70
2022-12-18T08:15:13.585Z,-10.60
2022-12-18T08:17:45.293Z,-10.60
2022-12-18T08:20:16.411Z,-10.60
2022-12-18T08:22:45.299Z,-10.50
2022-12-18T08:25:14.128Z,-10.40
2022-12-18T08:27:42.952Z,-10.30
2022-12-18T08:30:13.789Z,-10.30
2022-12-18T08:32:42.554Z,-10.30
2022-12-18T08:35:16.417Z,-10.20
2022-12-18T08:37:49.794Z,-10.20
2022-12-18T08:40:19.149Z,-10.30
2022-12-18T08:43:05.412Z,-10.20
2022-12-18T08:45:38.960Z,-10.20
2022-12-18T08:48:08.406Z,-10.20
2022-12-18T08:50:43.733Z,-10.20
2022-12-18T08:53:13.410Z,-10.10
2022-12-18T08:55:45.862Z,-10.10
2022-12-18T08:58:19.357Z,-10.00
2022-12-18T09:00:52.042Z,-10.00
2022-12-18T09:03:23.611Z,-9.90
2022-12-18T09:05:53.671Z,-9.90
2022-12-18T09:08:22.319Z,-9.90
2022-12-18T09:10:54.297Z,-9.80
2022-12-18T09:13:24.301Z,-9.80
2022-12-18T09:15:54.454Z,-9.70
2022-12-18T09:18:25.772Z,-9.70
2022-12-18T09:20:55.991Z,-9.60
2022-12-18T09:23:26.854Z,-9.40
2022-12-18T09:26:01.582Z,-9.30
2022-12-18T09:28:30.180Z,-9.20
2022-12-18T09:30:58.630Z,-9.00
2022-12-18T09:33:29.762Z,-9.00
2022-12-18T09:35:59.753Z,-8.80
2022-12-18T09:38:28.125Z,-8.70
2022-12-18T09:41:01.677Z,-8.60
2022-12-18T09:43:38.654Z,-8.50
2022-12-18T09:46:11.341Z,-8.30
2022-12-18T09:48:44.639Z,-8.20
2022-12-18T09:51:19.376Z,-8.10
2022-12-18T09:53:54.620Z,-8.00
2022-12-18T09:56:25.865Z,-7.90
2022-12-18T09:59:00.019Z,-7.80
2022-12-18T10:01:38.920Z,-7.60
2022-12-18T10:04:12.485Z,-7.50
2022-12-18T10:06:49.059Z,-7.40
2022-12-18T10:09:25.414Z,-7.30
2022-12-18T10:12:05.385Z,-7.10
2022-12-18T10:14:43.951Z,-7.00
2022-12-18T10:17:28.128Z,-6.90
2022-12-18T10:20:02.934Z,-6.80
2022-12-18T10:22:45.186Z,-6.60
2022-12-18T10:25:23.895Z,-6.50
2022-12-18T10:27:56.462Z,-6.40
2022-12-18T10:30:26.642Z,-6.40
2022-12-18T10:32:55.233Z,-6.30
2022-12-18T10:35:26.330Z,-6.20
2022-12-18T10:38:25.928Z,-6.20
2022-12-18T10:40:59.802Z,-6.10
2022-12-18T10:43:31.052Z,-6.00
2022-12-18T10:46:10.552Z,-5.80
2022-12-18T10:48:44.319Z,-5.70
2022-12-18T10:51:22.851Z,-5.60
2022-12-18T10:53:58.547Z,-5.60
2022-12-18T10:56:30.180Z,-5.50
2022-12-18T10:59:02.525Z,-5.50
2022-12-18T11:01:48.169Z,-5.40
2022-12-18T11:04:20.944Z,-5.30
2022-12-18T11:07:01.963Z,-5.20
2022-12-18T11:09:34.037Z,-5.20
2022-12-18T11:12:07.239Z,-5.10
2022-12-18T11:14:47.090Z,-5.00
2022-12-18T11:17:26.511Z,-5.00
2022-12-18T11:19:57.106Z,-4.90
2022-12-18T11:22:29.215Z,-4.80
2022-12-18T11:25:30.965Z,-4.70
2022-12-18T11:27:53.162Z,-4.60
2022-12-18T11:30:27.473Z,-4.60
2022-12-18T11:33:07.698Z,-4.60
2022-12-18T11:35:42.203Z,-4.50
2022-12-18T11:38:22.083Z,-4.40
2022-12-18T11:40:57.536Z,-4.30
2022-12-18T11:43:33.447Z,-4.30
2022-12-18T11:46:06.758Z,-4.20
2022-12-18T11:48:42.603Z,-4.20
2022-12-18T11:51:17.343Z,-4.10
2022-12-18T11:53:49.289Z,-4.10
2022-12-18T11:56:34.271Z,-4.00
2022-12-18T11:59:15.607Z,-4.00
2022-12-18T12:01:53.032Z,-3.90
2022-12-18T12:05:07.316Z,-3.80
2022-12-18T12:07:48.522Z,-3.70
2022-12-18T12:10:39.762Z,-3.60
2022-12-18T12:13:29.585Z,-3.60
2022-12-18T12:16:09.994Z,-3.60
2022-12-18T12:18:50.697Z,-3.60
2022-12-18T12:21:26.433Z,-3.50
2022-12-18T12:24:03.956Z,-3.50
2022-12-18T12:26:38.829Z,-3.40
2022-12-18T12:29:23.597Z,-3.30
2022-12-18T12:32:08.528Z,-3.30
2022-12-18T12:34:46.914Z,-3.30
2022-12-18T12:37:26.671Z,-3.30
2022-12-18T12:39:56.769Z,-3.30
2022-12-18T12:42:50.748Z,-3.20
2022-12-18T12:45:30.656Z,-3.20
2022-12-18T12:48:01.656Z,-3.20
2022-12-18T12:50:31.669Z,-3.20
2022-12-18T12:53:01.184Z,-3.10
2022-12-18T12:55:31.811Z,-3.10
2022-12-18T12:58:09.122Z,-3.10
2022-12-18T13:00:48.794Z,-3.10
2022-12-18T13:03:41.927Z,-3.00
2022-12-18T13:06:19.737Z,-3.10
2022-12-18T13:08:58.014Z,-3.00
2022-12-18T13:11:54.935Z,-3.00
2022-12-18T13:14:33.288Z,-3.00
2022-12-18T13:17:39.850Z,-3.10
2022-12-18T13:20:15.940Z,-3.10
2022-12-18T13:22:51.782Z,-3.00
2022-12-18T13:25:36.481Z,-3.00
2022-12-18T13:28:11.076Z,-2.90
2022-12-18T13:30:59.349Z,-2.90
2022-12-18T13:36:44.289Z,-2.80
2022-12-18T13:39:29.974Z,-2.80
2022-12-18T13:42:58.659Z,-2.70
2022-12-18T13:46:03.284Z,-2.70
2022-12-18T13:48:35.035Z,-2.70
2022-12-18T13:51:07.018Z,-2.70
2022-12-18T13:53:41.959Z,-2.70
2022-12-18T13:56:11.711Z,-2.70
2022-12-18T13:58:40.583Z,-2.70
2022-12-18T14:01:24.730Z,-2.70
2022-12-18T14:03:56.093Z,-2.70
2022-12-18T14:06:24.781Z,-2.70
2022-12-18T14:08:55.548Z,-2.70
2022-12-18T14:11:26.712Z,-2.70
2022-12-18T14:13:55.758Z,-2.70
2022-12-18T14:16:25.255Z,-2.70
2022-12-18T14:18:57.573Z,-2.70
2022-12-18T14:21:41.981Z,-2.70
2022-12-18T14:24:19.986Z,-2.70
2022-12-18T14:26:50.577Z,-2.80
2022-12-18T14:29:37.771Z,-2.80
2022-12-18T14:32:17.912Z,-2.80
2022-12-18T14:34:49.460Z,-2.80
2022-12-18T14:37:26.085Z,-2.80
2022-12-18T14:39:58.231Z,-2.90
2022-12-18T14:42:29.336Z,-2.90
2022-12-18T14:45:42.706Z,-3.00
2022-12-18T14:48:23.570Z,-3.00
2022-12-18T14:51:04.553Z,-3.00
2022-12-18T14:53:57.387Z,-3.10
2022-12-18T14:56:30.271Z,-3.10
2022-12-18T14:59:01.161Z,-3.10
2022-12-18T15:01:32.929Z,-3.10
2022-12-18T15:04:03.551Z,-3.10
2022-12-18T15:06:35.581Z,-3.10
2022-12-18T15:09:07.611Z,-3.20
2022-12-18T15:11:48.180Z,-3.30
2022-12-18T15:14:35.908Z,-3.30
2022-12-18T15:17:08.708Z,-3.40
2022-12-18T15:19:41.877Z,-3.50
2022-12-18T15:22:32.609Z,-3.50
2022-12-18T15:25:03.955Z,-3.60
2022-12-18T15:27:38.997Z,-3.60
2022-12-18T15:30:25.312Z,-3.70
2022-12-18T15:32:55.623Z,-3.80
2022-12-18T15:35:25.979Z,-3.90
2022-12-18T15:37:54.778Z,-3.90
2022-12-18T15:40:25.553Z,-4.00
2022-12-18T15:43:14.835Z,-4.10
2022-12-18T15:45:44.392Z,-4.10
2022-12-18T15:48:24.489Z,-4.20
2022-12-18T15:50:53.938Z,-4.30
2022-12-18T15:53:22.915Z,-4.30
2022-12-18T15:56:09.219Z,-4.30
2022-12-18T15:58:39.650Z,-4.30
2022-12-18T16:01:10.324Z,-4.30
2022-12-18T16:03:40.455Z,-4.30
2022-12-18T16:06:11.130Z,-4.30
2022-12-18T16:08:40.076Z,-4.30
2022-12-18T16:11:39.276Z,-4.30
2022-12-18T16:14:18.149Z,-4.30
2022-12-18T16:16:47.942Z,-4.30
2022-12-18T16:19:18.690Z,-4.30
2022-12-18T16:21:50.076Z,-4.30
2022-12-18T16:24:23.490Z,-4.20
2022-12-18T16:26:54.118Z,-4.20
2022-12-18T16:29:28.618Z,-4.20
2022-12-18T16:31:57.845Z,-4.20
2022-12-18T16:34:29.490Z,-4.20
2022-12-18T16:37:04.816Z,-4.30
2022-12-18T16:39:35.051Z,-4.30
2022-12-18T16:42:06.058Z,-4.30
2022-12-18T16:44:36.674Z,-4.30
2022-12-18T16:47:06.709Z,-4.30
2022-12-18T16:49:37.953Z,-4.40
2022-12-18T16:52:08.351Z,-4.40
2022-12-18T16:54:37.362Z,-4.40
2022-12-18T16:57:06.751Z,-4.40
2022-12-18T16:59:37.102Z,-4.40
2022-12-18T17:02:08.275Z,-4.30
2022-12-18T17:04:37.120Z,-4.30
2022-12-18T17:07:05.927Z,-4.30
2022-12-18T17:09:34.904Z,-4.30
2022-12-18T17:12:04.803Z,-4.30
2022-12-18T17:14:35.586Z,-4.20
2022-12-18T17:17:20.780Z,-4.20
2022-12-18T17:19:51.217Z,-4.20
2022-12-18T17:22:20.251Z,-4.20
2022-12-18T17:24:53.625Z,-4.10
2022-12-18T17:27:23.229Z,-4.10
2022-12-18T17:29:52.155Z,-4.10
2022-12-18T17:32:22.481Z,-4.10
2022-12-18T17:34:52.073Z,-4.10
2022-12-18T17:37:20.993Z,-4.00
2022-12-18T17:39:49.405Z,-4.00
2022-12-18T17:42:17.963Z,-4.00
2022-12-18T17:44:47.211Z,-4.00
2022-12-18T17:47:16.439Z,-4.00
2022-12-18T17:49:46.535Z,-3.90
2022-12-18T17:52:15.365Z,-3.90
2022-12-18T17:54:44.505Z,-3.90
2022-12-18T17:57:14.509Z,-3.90
2022-12-18T17:59:43.487Z,-3.90
2022-12-18T18:02:15.835Z,-3.90
2022-12-18T18:04:50.039Z,-3.90
2022-12-18T18:07:18.585Z,-3.90
2022-12-18T18:09:47.489Z,-3.90
2022-12-18T18:12:33.162Z,-3.80
2022-12-18T18:15:03.451Z,-3.80
2022-12-18T18:17:32.494Z,-3.80
2022-12-18T18:20:03.840Z,-3.80
2022-12-18T18:22:32.393Z,-3.80
2022-12-18T18:25:01.501Z,-3.80
2022-12-18T18:27:33.962Z,-3.70
2022-12-18T18:30:08.351Z,-3.70
2022-12-18T18:32:40.496Z,-3.70
2022-12-18T18:35:19.449Z,-3.70
2022-12-18T18:37:59.849Z,-3.70
2022-12-18T18:40:33.589Z,-3.60
2022-12-18T18:43:02.925Z,-3.60
2022-12-18T18:45:34.397Z,-3.60
2022-12-18T18:48:03.197Z,-3.60
2022-12-18T18:50:33.408Z,-3.60
2022-12-18T18:53:02.027Z,-3.50
2022-12-18T18:55:30.848Z,-3.50
2022-12-18T18:57:59.676Z,-3.50
2022-12-18T19:00:29.830Z,-3.50
2022-12-18T19:03:00.796Z,-3.60
2022-12-18T19:05:32.701Z,-3.60
2022-12-18T19:08:03.150Z,-3.60
2022-12-18T19:10:31.865Z,-3.60
2022-12-18T19:13:18.289Z,-3.60
2022-12-18T19:15:47.273Z,-3.60
2022-12-18T19:18:17.522Z,-3.60
2022-12-18T19:20:46.262Z,-3.60
2022-12-18T19:23:18.534Z,-3.60
2022-12-18T19:25:47.234Z,-3.60
2022-12-18T19:28:21.736Z,-3.70
2022-12-18T19:30:58.814Z,-3.70
2022-12-18T19:33:45.229Z,-3.60
2022-12-18T19:36:21.989Z,-3.60
2022-12-18T19:38:56.117Z,-3.70
2022-12-18T19:41:25.869Z,-3.70
2022-12-18T19:43:58.231Z,-3.70
2022-12-18T19:46:28.012Z,-3.70
2022-12-18T19:48:56.902Z,-3.70
2022-12-18T19:51:28.014Z,-3.70
2022-12-18T19:54:01.625Z,-3.60
2022-12-18T19:56:34.627Z,-3.60
2022-12-18T19:59:05.273Z,-3.60
2022-12-18T20:01:34.944Z,-3.60
2022-12-18T20:04:03.780Z,-3.60
2022-12-18T20:06:34.487Z,-3.60
2022-12-18T20:09:07.290Z,-3.60
2022-12-18T20:11:41.297Z,-3.60
2022-12-18T20:14:11.255Z,-3.60
2022-12-18T20:16:41.093Z,-3.60
2022-12-18T20:19:10.690Z,-3.60
2022-12-18T20:21:39.219Z,-3.60
2022-12-18T20:24:13.331Z,-3.50
2022-12-18T20:26:42.644Z,-3.50
2022-12-18T20:29:11.765Z,-3.50
2022-12-18T20:31:40.972Z,-3.50
2022-12-18T20:34:09.719Z,-3.50
2022-12-18T20:36:39.925Z,-3.50
2022-12-18T20:39:15.239Z,-3.50
2022-12-18T20:41:44.395Z,-3.50
2022-12-18T20:44:22.760Z,-3.50
2022-12-18T20:46:56.962Z,-3.50
2022-12-18T20:49:28.198Z,-3.50
2022-12-18T20:52:03.187Z,-3.50
2022-12-18T20:54:33.626Z,-3.50
2022-12-18T20:57:03.867Z,-3.50
2022-12-18T20:59:34.667Z,-3.40
2022-12-18T21:02:03.618Z,-3.40
2022-12-18T21:04:33.662Z,-3.40
2022-12-18T21:07:03.072Z,-3.40
2022-12-18T21:09:37.937Z,-3.40
2022-12-18T21:12:32.939Z,-3.40
2022-12-18T21:15:13.148Z,-3.30
2022-12-18T21:17:44.571Z,-3.30
2022-12-18T21:20:17.837Z,-3.30
2022-12-18T21:22:49.536Z,-3.30
2022-12-18T21:25:19.985Z,-3.30
2022-12-18T21:27:50.268Z,-3.30
2022-12-18T21:30:18.824Z,-3.30
2022-12-18T21:32:50.173Z,-3.30
2022-12-18T21:35:18.954Z,-3.20
2022-12-18T21:37:49.405Z,-3.20
2022-12-18T21:40:20.297Z,-3.20
2022-12-18T21:43:06.491Z,-3.20
2022-12-18T21:45:35.408Z,-3.20
2022-12-18T21:48:04.216Z,-3.20
2022-12-18T21:50:36.205Z,-3.20
2022-12-18T21:53:06.943Z,-3.10
2022-12-18T21:55:36.762Z,-3.20
2022-12-18T21:58:06.401Z,-3.20
2022-12-18T22:00:36.350Z,-3.10
2022-12-18T22:03:15.548Z,-3.10
2022-12-18T22:05:49.402Z,-3.10
2022-12-18T22:08:42.078Z,-3.10
2022-12-18T22:11:14.625Z,-3.10
2022-12-18T22:13:47.323Z,-3.00
2022-12-18T22:16:16.498Z,-3.00
2022-12-18T22:18:45.065Z,-3.00
2022-12-18T22:21:29.040Z,-3.00
2022-12-18T22:24:01.171Z,-3.00
2022-12-18T22:26:39.251Z,-3.00
2022-12-18T22:29:29.240Z,-2.90
2022-12-18T22:31:59.443Z,-2.90
2022-12-18T22:34:28.715Z,-2.80
2022-12-18T22:36:57.466Z,-2.80
2022-12-18T22:39:27.400Z,-2.80
2022-12-18T22:41:59.518Z,-2.80
2022-12-18T22:44:27.966Z,-2.80
2022-12-18T22:47:05.640Z,-2.70
2022-12-18T22:49:36.540Z,-2.70
2022-12-18T22:52:05.407Z,-2.70
2022-12-18T22:54:33.884Z,-2.70
2022-12-18T22:57:05.374Z,-2.70
2022-12-18T22:59:33.878Z,-2.70
2022-12-18T23:02:03.101Z,-2.60
2022-12-18T23:04:36.326Z,-2.60
2022-12-18T23:07:06.394Z,-2.60
2022-12-18T23:09:35.188Z,-2.50
2022-12-18T23:12:07.479Z,-2.50
2022-12-18T23:14:36.317Z,-2.50
2022-12-18T23:17:05.539Z,-2.50
2022-12-18T23:19:39.979Z,-2.50
2022-12-18T23:22:11.982Z,-2.50
2022-12-18T23:24:42.387Z,-2.50
2022-12-18T23:27:12.772Z,-2.40
2022-12-18T23:29:42.221Z,-2.40
2022-12-18T23:32:12.957Z,-2.40
2022-12-18T23:34:43.742Z,-2.40
2022-12-18T23:37:25.024Z,-2.40
2022-12-18T23:40:02.655Z,-2.40
2022-12-18T23:42:32.699Z,-2.40
2022-12-18T23:45:01.260Z,-2.40
2022-12-18T23:47:36.329Z,-2.40
2022-12-18T23:50:05.231Z,-2.50
2022-12-18T23:52:33.701Z,-2.50
2022-12-18T23:55:02.397Z,-2.50
2022-12-18T23:57:32.437Z,-2.50
